Paradise, CA

3:11 PM PDT on September 21, 2014 (GMT -0700)
Bennett | Change Station
CLOSE
Current Station
Personal Weather Station
Location: Paradise, CA
Elevation: 1568 ft
Nearby Weather Stations

Elev 1568 ft 39.74 °N, 121.60 °W | Updated 1 second ago

Partly Cloudy
Partly Cloudy
84.6 °F
Feels Like 84 °F
N
0.0
Wind Variable Wind from North
Gusts 0.0 mph

Today
High -- | Low -- °F
--% Chance of Precip.
Yesterday
High -- | Low -- °F
Precip. -- in
6:53 AM 7:04 PM
Waning Crescent, 5% visible
Pressure 29.92 in
Visibility 25.0 miles
Clouds Mostly Cloudy 20000 ft
Heat Index 84 °F
Dew Point 59 °F
Humidity 42%
Rainfall 0.00 in
Snow Depth 0 in , 0 in , 0 in
UV 3 out of 12
Pollen 5.80 out of 12
Air Quality Not available.
Flu Activity Not available.
METAR KCIC 212147Z 16008KT 25SM BKN200 27/13 A2992

More Conditions Fewer Conditions

Pressure 29.92 in
Visibility 25.0 miles
Clouds Mostly Cloudy 20000 ft
Heat Index 84 °F
Dew Point 59 °F
Humidity 42%
Rainfall 0.00 in
Snow Depth 0 in , 0 in , 0 in
UV 3 out of 12
Pollen 5.80 out of 12
Air Quality Not available.
Flu Activity Not available.
METAR KCIC 212147Z 16008KT 25SM BKN200 27/13 A2992

More Conditions Fewer Conditions

10-Day Weather Forecast

Almanac

Astronomy

Sep. 21, 2014 Rise Set
Actual Time 6:53 AM PDT 7:04 PM PDT
Civil Twilight 6:26 AM PDT 7:31 PM PDT
Nautical Twilight 5:54 AM PDT 8:03 PM PDT
Astronomical Twilight 5:22 AM PDT 8:35 PM PDT
Moon 4:31 AM PDT 5:43 PM PDT
Length of Visible Light 13h 05m
Length of Day
12h 11m
Tomorrow will be 2m 36s shorter.
Waning Crescent, 5% of the Moon is Illuminated
Today
Waning Crescent
Sep 24
New
Oct 1
First Quarter
Oct 8
Full
Oct 15
Last Quarter

Today's Extremes

State Highs State Lows

Community

WunderPhotos

Upload Photos

1,755,269 photos uploaded!

WunderBlogs® & News

Nearby

Snow Depth

Station Depth Elevation
Leavitt Meadows 0 in 7200 ft
Hagan's Meadow 0 in 8000 ft
Tahoe City Cross 0 in 6750 ft
Summit Meadow 0 in 9122 ft
Echo Peak 0 in 7800 ft

Earthquake Activity

City Distance Mag. Time & Date
Sonoma, California 106 miles 2.7 1:17 PM PDT
2014-09-21
Cloverdale, California 92 miles 2.5 9:15 PM PDT
2014-09-20
The Geysers, California 90 miles 2.5 11:29 PM PDT
2014-09-17
Minimum magnitude displayed is 2.5.

Coastal Water Temperatures

Place Temperature
No Stations Reporting

Nearby Weather Stations